»·PEaware :: CFVUM CYVR-CYYZ

CFVUM :: CYVR-CYYZ

FLIGHT INFORMATION

Flight Status: Arrived
Operator: Unknown
More flights by this operator :: More flights under this callsign
Pilot: Lester F. (25731)
Aircraft: Cessna 700 Citation Longitude
(C700)
More flights by this aircraft type
Origin: CYVR Vancouver Intl
Canada
Destination: CYYZ Toronto/Pearson Intl
Canada
More flights between these airports :: More routes between these airports
Route: FERRY HARAS HE YDC SKAHA GOATE DASBI LOCAN ERVYN YXE FIRNI COWLE YQL WALSH DUVIK RINAE CKC OTNIK NAKAL TUDAN SETGO DARID BOXUM DUVOS ONGOX BEFNI ZTO
File this flight plan on PilotEdge
Remarks:
Altitude:
(Current/Filed)
41,000ft
Speed:
(Current/Filed)
385kts
Departed: 23-Oct-20 04:02 PM
Arrived: 23-Oct-20 08:12 PM
Distance/Time
Traveled:
1805nm/4:10
Distance/Time
To Go:
Arrived

Flight Plot

Page will automatically refresh every two minutes.

Flight plan parsing failed; only flown route is shown


Map Options




Map Legend


Flown Route
Filed Route
Departure Airport
Arrival Airport
Navaid (VOR, NDB)
Fix

Horizontal Profiles

Position Reports

Time Latitude Longitude Heading Altitude Ground
Speed
23-Oct-20 15:45 49.198037 -123.176706 182 12ft 0kts
23-Oct-20 15:46 49.198037 -123.176706 182 12ft 0kts
23-Oct-20 15:47 49.198223 -123.176822 128 12ft 2kts
23-Oct-20 15:48 49.198277 -123.177030 90 12ft 0kts
23-Oct-20 15:49 49.198277 -123.177030 90 12ft 0kts
23-Oct-20 15:50 49.199474 -123.178273 280 12ft 7kts
23-Oct-20 15:51 49.200039 -123.180897 278 13ft 6kts
23-Oct-20 15:52 49.200314 -123.183256 281 13ft 5kts
23-Oct-20 15:53 49.200105 -123.185193 194 13ft 6kts
23-Oct-20 15:53 49.197998 -123.185748 188 12ft 11kts
23-Oct-20 15:55 49.193850 -123.187895 234 11ft 12kts
23-Oct-20 15:55 49.193456 -123.191360 260 11ft 9kts
23-Oct-20 15:57 49.192763 -123.197008 259 11ft 12kts
23-Oct-20 15:57 49.192178 -123.201705 259 13ft 14kts
23-Oct-20 15:59 49.191991 -123.207800 236 14ft 0kts
23-Oct-20 15:59 49.191991 -123.207800 236 14ft 0kts
23-Oct-20 16:00 49.190183 -123.208103 117 14ft 10kts
23-Oct-20 16:01 49.182916 -123.160018 107 856ft 178kts
23-Oct-20 16:02 49.172850 -123.081941 112 3118ft 187kts
23-Oct-20 16:03 49.149738 -123.010486 119 5115ft 204kts
23-Oct-20 16:04 49.145008 -122.926173 83 7165ft 212kts
23-Oct-20 16:05 49.156469 -122.835233 83 8836ft 227kts
23-Oct-20 16:06 49.167974 -122.737481 82 10223ft 246kts
23-Oct-20 16:07 49.180158 -122.631787 80 11537ft 261kts
23-Oct-20 16:08 49.192914 -122.519892 71 12817ft 275kts
23-Oct-20 16:09 49.214373 -122.406012 72 14045ft 283kts
23-Oct-20 16:10 49.235916 -122.288322 70 15118ft 295kts
23-Oct-20 16:11 49.257772 -122.166578 69 16600ft 296kts
23-Oct-20 16:12 49.279685 -122.043766 68 17459ft 304kts
23-Oct-20 16:13 49.301789 -121.918808 66 18309ft 308kts
23-Oct-20 16:14 49.323831 -121.792254 65 19330ft 311kts
23-Oct-20 16:15 49.345965 -121.664876 66 20703ft 310kts
23-Oct-20 16:16 49.368150 -121.536589 66 21377ft 317kts
23-Oct-20 16:17 49.389067 -121.405015 81 22293ft 327kts
23-Oct-20 16:18 49.387450 -121.264342 81 23175ft 334kts
23-Oct-20 16:19 49.386758 -121.124751 84 24398ft 335kts
23-Oct-20 16:20 49.385980 -120.980939 84 25197ft 343kts
23-Oct-20 16:21 49.385267 -120.835842 84 25998ft 343kts
23-Oct-20 16:22 49.384286 -120.688920 85 26853ft 347kts
23-Oct-20 16:23 49.383126 -120.540931 84 27412ft 349kts
23-Oct-20 16:24 49.380481 -120.391414 85 28460ft 351kts
23-Oct-20 16:25 49.388076 -120.242674 80 29020ft 357kts
23-Oct-20 16:26 49.395530 -120.090012 80 29370ft 369kts
23-Oct-20 16:27 49.402809 -119.932231 78 30152ft 371kts
23-Oct-20 16:28 49.409867 -119.774872 78 30908ft 372kts
23-Oct-20 16:29 49.416069 -119.614745 79 31182ft 381kts
23-Oct-20 16:30 49.426144 -119.455834 76 32199ft 377kts
23-Oct-20 16:31 49.435808 -119.294768 75 32774ft 382kts
23-Oct-20 16:32 49.445541 -119.132335 73 33424ft 384kts
23-Oct-20 16:33 49.453381 -118.968613 73 34158ft 384kts
23-Oct-20 16:34 49.461150 -118.803911 74 34487ft 389kts
23-Oct-20 16:35 49.468719 -118.638284 74 35247ft 388kts
23-Oct-20 16:36 49.476207 -118.470632 75 35343ft 400kts
23-Oct-20 16:37 49.483644 -118.298813 75 35697ft 407kts
23-Oct-20 16:38 49.490739 -118.126997 75 35969ft 402kts
23-Oct-20 16:39 49.497564 -117.954248 75 36367ft 408kts
23-Oct-20 16:40 49.504232 -117.779882 75 36776ft 409kts
23-Oct-20 16:41 49.510546 -117.607951 74 37371ft 406kts
23-Oct-20 16:42 49.511505 -117.439643 84 38299ft 390kts
23-Oct-20 16:43 49.497731 -117.271874 85 38644ft 411kts
23-Oct-20 16:44 49.504411 -117.103379 42 40176ft 367kts
23-Oct-20 16:45 49.541152 -116.943677 81 41562ft 457kts
23-Oct-20 16:46 49.537434 -116.738788 74 41330ft 486kts
23-Oct-20 16:47 49.543610 -116.523080 78 41539ft 510kts
23-Oct-20 16:48 49.548842 -116.302028 80 41464ft 523kts
23-Oct-20 16:49 49.553562 -116.078057 81 41553ft 527kts
23-Oct-20 16:50 49.562315 -115.853101 81 41481ft 532kts
23-Oct-20 16:51 49.570751 -115.626341 81 41455ft 536kts
23-Oct-20 16:52 49.578647 -115.398177 81 41465ft 539kts
23-Oct-20 16:53 49.585950 -115.168082 81 41533ft 537kts
23-Oct-20 16:54 49.592700 -114.941783 81 41434ft 542kts
23-Oct-20 16:55 49.599046 -114.710876 81 41593ft 543kts
23-Oct-20 16:56 49.604985 -114.477594 81 41539ft 545kts
23-Oct-20 16:57 49.610407 -114.244480 81 41564ft 545kts
23-Oct-20 16:58 49.615386 -114.010875 82 41600ft 546kts
23-Oct-20 16:59 49.619746 -113.777801 83 41628ft 545kts
23-Oct-20 17:00 49.623659 -113.545239 83 41683ft 544kts
23-Oct-20 17:01 49.627121 -113.312996 84 41686ft 542kts
23-Oct-20 17:02 49.630138 -113.081036 84 41692ft 540kts
23-Oct-20 17:03 49.632686 -112.850675 84 41706ft 537kts
23-Oct-20 17:04 49.638453 -112.622483 74 41687ft 529kts
23-Oct-20 17:05 49.680404 -112.409428 72 41724ft 523kts
23-Oct-20 17:06 49.716032 -112.193591 71 41693ft 520kts
23-Oct-20 17:07 49.751666 -111.978275 70 41701ft 517kts
23-Oct-20 17:08 49.786651 -111.764056 70 41699ft 514kts
23-Oct-20 17:09 49.821112 -111.550671 70 41696ft 511kts
23-Oct-20 17:10 49.855135 -111.337770 70 41690ft 509kts
23-Oct-20 17:11 49.888724 -111.125291 71 41689ft 507kts
23-Oct-20 17:12 49.921746 -110.913972 71 41677ft 505kts
23-Oct-20 17:13 49.954381 -110.702569 72 41686ft 504kts
23-Oct-20 17:14 49.986480 -110.491958 72 41682ft 503kts
23-Oct-20 17:15 50.018199 -110.281100 72 41686ft 502kts
23-Oct-20 17:16 50.049421 -110.070688 73 41677ft 500kts
23-Oct-20 17:17 50.048638 -109.854450 103 41680ft 511kts
23-Oct-20 17:18 50.017789 -109.640703 94 41705ft 507kts
23-Oct-20 17:19 49.991602 -109.425948 96 41702ft 507kts
23-Oct-20 17:20 49.964922 -109.211454 97 41709ft 506kts
23-Oct-20 17:21 49.938118 -108.997355 98 41715ft 506kts
23-Oct-20 17:22 49.911089 -108.783785 98 41729ft 505kts
23-Oct-20 17:23 49.883736 -108.570708 99 41719ft 505kts
23-Oct-20 17:24 49.856047 -108.358197 99 41734ft 504kts
23-Oct-20 17:25 49.827998 -108.146200 100 41742ft 504kts
23-Oct-20 17:26 49.799419 -107.933641 100 41741ft 503kts
23-Oct-20 17:27 49.770640 -107.722767 100 41753ft 502kts
23-Oct-20 17:28 49.741492 -107.512383 100 41755ft 501kts
23-Oct-20 17:29 49.712042 -107.302824 101 41749ft 500kts
23-Oct-20 17:30 49.682326 -107.094340 101 41756ft 498kts
23-Oct-20 17:31 49.652235 -106.886118 101 41757ft 497kts
23-Oct-20 17:32 49.621848 -106.678638 101 41763ft 496kts
23-Oct-20 17:33 49.591248 -106.472501 101 41769ft 495kts
23-Oct-20 17:34 49.560317 -106.266799 102 41773ft 494kts
23-Oct-20 17:35 49.529056 -106.061601 102 41769ft 493kts
23-Oct-20 17:36 49.497494 -105.857072 102 41775ft 492kts
23-Oct-20 17:37 49.465625 -105.653136 102 41772ft 491kts
23-Oct-20 17:39 49.433379 -105.449365 103 41780ft 491kts
23-Oct-20 17:40 49.400898 -105.246606 103 41770ft 490kts
23-Oct-20 17:41 49.368127 -105.044520 103 41772ft 489kts
23-Oct-20 17:42 49.335029 -104.842852 103 41769ft 489kts
23-Oct-20 17:43 49.301645 -104.641852 104 41758ft 488kts
23-Oct-20 17:44 49.267896 -104.441018 104 41754ft 487kts
23-Oct-20 17:45 49.240003 -104.239595 90 41778ft 484kts
23-Oct-20 17:46 49.231016 -104.035248 94 41731ft 485kts
23-Oct-20 17:47 49.220191 -103.830713 95 41735ft 483kts
23-Oct-20 17:48 49.208880 -103.626512 95 41733ft 483kts
23-Oct-20 17:49 49.197095 -103.422861 95 41727ft 482kts
23-Oct-20 17:50 49.184835 -103.219029 95 41723ft 481kts
23-Oct-20 17:51 49.172215 -103.016114 95 41721ft 481kts
23-Oct-20 17:52 49.159236 -102.813660 95 41714ft 481kts
23-Oct-20 17:53 49.145867 -102.610995 95 41708ft 480kts
23-Oct-20 17:53 49.134450 -102.442329 95 41704ft 480kts
23-Oct-20 17:55 49.118113 -102.206475 96 41702ft 480kts
23-Oct-20 17:55 49.106184 -102.038702 96 41712ft 479kts
23-Oct-20 17:57 49.089059 -101.803554 96 41691ft 479kts
23-Oct-20 17:57 49.076525 -101.635570 96 41683ft 479kts
23-Oct-20 17:58 49.061245 -101.435217 97 41681ft 478kts
23-Oct-20 18:00 49.042883 -101.200422 97 41658ft 478kts
23-Oct-20 18:00 49.029564 -101.033874 97 41656ft 478kts
23-Oct-20 18:02 49.010412 -100.799644 97 41651ft 477kts
23-Oct-20 18:02 48.996509 -100.633221 97 41655ft 477kts
23-Oct-20 18:03 48.979558 -100.434082 98 41622ft 458kts
23-Oct-20 18:04 48.964291 -100.258398 98 41604ft 384kts
23-Oct-20 18:05 48.951553 -100.111657 96 40330ft 345kts
23-Oct-20 18:06 48.937242 -99.950801 101 40899ft 373kts
23-Oct-20 18:07 48.922727 -99.791468 99 41623ft 402kts
23-Oct-20 18:08 48.906040 -99.612095 99 41608ft 460kts
23-Oct-20 18:09 48.886660 -99.407440 99 41615ft 524kts
23-Oct-20 18:10 48.865898 -99.192628 99 41593ft 487kts
23-Oct-20 18:11 48.846217 -98.992811 99 39833ft 479kts
23-Oct-20 18:12 48.826393 -98.794702 99 37862ft 474kts
23-Oct-20 18:13 48.806387 -98.598149 99 35862ft 469kts
23-Oct-20 18:14 48.786381 -98.404774 100 34000ft 460kts
23-Oct-20 18:15 48.766770 -98.218411 100 32569ft 445kts
23-Oct-20 18:16 48.747319 -98.036363 100 31600ft 433kts
23-Oct-20 18:17 48.727075 -97.849779 101 31556ft 464kts
23-Oct-20 18:18 48.705222 -97.653028 103 31551ft 486kts
23-Oct-20 18:19 48.687117 -97.448380 101 31546ft 494kts
23-Oct-20 18:20 48.668675 -97.242659 100 31542ft 496kts
23-Oct-20 18:21 48.649786 -97.035969 100 31538ft 498kts
23-Oct-20 18:22 48.630539 -96.828940 100 31534ft 499kts
23-Oct-20 18:23 48.610948 -96.621664 100 31530ft 500kts
23-Oct-20 18:24 48.590986 -96.414105 100 31522ft 501kts
23-Oct-20 18:25 48.570670 -96.206613 101 31515ft 501kts
23-Oct-20 18:26 48.549940 -95.998697 101 31509ft 502kts
23-Oct-20 18:27 48.528862 -95.791075 101 31499ft 502kts
23-Oct-20 18:28 48.507423 -95.583718 102 31490ft 502kts
23-Oct-20 18:29 48.485612 -95.376607 102 31482ft 502kts
23-Oct-20 18:30 48.463401 -95.169399 102 31472ft 502kts
23-Oct-20 18:31 48.440818 -94.962385 103 31464ft 502kts
23-Oct-20 18:32 48.417899 -94.755873 103 31457ft 502kts
23-Oct-20 18:33 48.394625 -94.549670 104 31452ft 501kts
23-Oct-20 18:34 48.370938 -94.343246 104 31449ft 501kts
23-Oct-20 18:35 48.346951 -94.137648 105 31443ft 501kts
23-Oct-20 18:36 48.322512 -93.931490 105 31441ft 501kts
23-Oct-20 18:37 48.297861 -93.726797 106 31438ft 502kts
23-Oct-20 18:38 48.272633 -93.520606 107 31432ft 502kts
23-Oct-20 18:39 48.247142 -93.315460 108 31430ft 502kts
23-Oct-20 18:40 48.221258 -93.110289 109 31426ft 502kts
23-Oct-20 18:41 48.194901 -92.904481 110 31407ft 502kts
23-Oct-20 18:42 48.168311 -92.699915 110 31413ft 503kts
23-Oct-20 18:43 48.141320 -92.495231 111 31408ft 502kts
23-Oct-20 18:44 48.113904 -92.290430 112 31399ft 503kts
23-Oct-20 18:45 48.086175 -92.086058 113 31399ft 502kts
23-Oct-20 18:46 48.058052 -91.881728 113 31390ft 502kts
23-Oct-20 18:47 48.029667 -91.678374 114 31388ft 502kts
23-Oct-20 18:48 48.000825 -91.474611 114 31378ft 502kts
23-Oct-20 18:49 47.971742 -91.271751 115 31368ft 501kts
23-Oct-20 18:50 47.942232 -91.068760 115 31358ft 501kts
23-Oct-20 18:51 47.912443 -90.866475 115 31349ft 501kts
23-Oct-20 18:52 47.882276 -90.664275 115 31336ft 501kts
23-Oct-20 18:53 47.851785 -90.462441 116 31323ft 500kts
23-Oct-20 18:54 47.817251 -90.264290 118 31325ft 496kts
23-Oct-20 18:55 47.781855 -90.065762 120 31321ft 493kts
23-Oct-20 18:56 47.747235 -89.874233 121 31301ft 467kts
23-Oct-20 18:57 47.713640 -89.690792 121 31290ft 456kts
23-Oct-20 18:58 47.680094 -89.510171 122 31282ft 450kts
23-Oct-20 18:59 47.646753 -89.332758 122 31263ft 445kts
23-Oct-20 19:00 47.613521 -89.157738 122 31251ft 440kts
23-Oct-20 19:01 47.580181 -88.983818 122 31242ft 437kts
23-Oct-20 19:02 47.546855 -88.811481 122 31235ft 435kts
23-Oct-20 19:03 47.513498 -88.640389 122 31225ft 433kts
23-Oct-20 19:04 47.479479 -88.467945 122 31217ft 446kts
23-Oct-20 19:05 47.443975 -88.288868 121 31206ft 464kts
23-Oct-20 19:06 47.406940 -88.103981 121 31188ft 476kts
23-Oct-20 19:07 47.369002 -87.916538 120 31191ft 486kts
23-Oct-20 19:08 47.329544 -87.723410 120 31192ft 493kts
23-Oct-20 19:09 47.289563 -87.529549 120 31173ft 497kts
23-Oct-20 19:10 47.248836 -87.334086 120 31161ft 501kts
23-Oct-20 19:11 47.207597 -87.137985 120 31149ft 503kts
23-Oct-20 19:12 47.165985 -86.942055 119 31142ft 503kts
23-Oct-20 19:13 47.124085 -86.746570 119 31149ft 502kts
23-Oct-20 19:14 47.081856 -86.551466 119 31134ft 502kts
23-Oct-20 19:15 47.039600 -86.358142 119 31121ft 498kts
23-Oct-20 19:16 46.997205 -86.165856 119 31108ft 494kts
23-Oct-20 19:17 46.954705 -85.974825 119 31091ft 493kts
23-Oct-20 19:18 46.912154 -85.785341 119 31065ft 490kts
23-Oct-20 19:19 46.869490 -85.596967 119 31055ft 488kts
23-Oct-20 19:20 46.826651 -85.409533 119 31044ft 485kts
23-Oct-20 19:21 46.783719 -85.223297 119 31036ft 484kts
23-Oct-20 19:22 46.740637 -85.038029 119 31027ft 484kts
23-Oct-20 19:23 46.697192 -84.852805 119 31019ft 485kts
23-Oct-20 19:24 46.653368 -84.667502 119 31010ft 484kts
23-Oct-20 19:25 46.609437 -84.483309 119 31003ft 484kts
23-Oct-20 19:26 46.564997 -84.298510 119 31000ft 485kts
23-Oct-20 19:27 46.520327 -84.114266 119 31003ft 486kts
23-Oct-20 19:28 46.475044 -83.929033 119 31005ft 491kts
23-Oct-20 19:29 46.429173 -83.742968 119 30988ft 491kts
23-Oct-20 19:30 46.373211 -83.566958 137 30994ft 467kts
23-Oct-20 19:31 46.295576 -83.416676 133 30974ft 473kts
23-Oct-20 19:32 46.219523 -83.263696 133 30959ft 472kts
23-Oct-20 19:33 46.143710 -83.111457 133 30944ft 472kts
23-Oct-20 19:34 46.067152 -82.958074 134 30934ft 474kts
23-Oct-20 19:36 45.990508 -82.805137 134 30906ft 473kts
23-Oct-20 19:37 45.913437 -82.652122 134 30902ft 473kts
23-Oct-20 19:38 45.836269 -82.499714 135 30891ft 473kts
23-Oct-20 19:39 45.758874 -82.347733 135 30890ft 475kts
23-Oct-20 19:40 45.681143 -82.195940 134 30873ft 475kts
23-Oct-20 19:41 45.601824 -82.044683 141 30858ft 469kts
23-Oct-20 19:42 45.507091 -81.922809 142 30845ft 466kts
23-Oct-20 19:43 45.413731 -81.798390 143 30839ft 462kts
23-Oct-20 19:44 45.320522 -81.674398 144 30838ft 460kts
23-Oct-20 19:45 45.227415 -81.551049 144 30842ft 458kts
23-Oct-20 19:46 45.136026 -81.430583 145 30847ft 457kts
23-Oct-20 19:47 45.041660 -81.306814 144 30853ft 457kts
23-Oct-20 19:48 44.948719 -81.185556 144 30848ft 457kts
23-Oct-20 19:49 44.856420 -81.065509 145 29206ft 430kts
23-Oct-20 19:50 44.773413 -80.958396 145 27194ft 385kts
23-Oct-20 19:51 44.697529 -80.860757 146 25186ft 357kts
23-Oct-20 19:51 44.638245 -80.784725 147 23549ft 342kts
23-Oct-20 19:53 44.560964 -80.686027 148 21958ft 313kts
23-Oct-20 19:53 44.507639 -80.617931 148 20320ft 313kts
23-Oct-20 19:55 44.432713 -80.522695 148 17971ft 310kts
23-Oct-20 19:55 44.381284 -80.457433 149 17094ft 283kts
23-Oct-20 19:57 44.312011 -80.370028 148 14806ft 293kts
23-Oct-20 19:57 44.261531 -80.306512 147 13145ft 296kts
23-Oct-20 19:58 44.200937 -80.230403 146 11357ft 286kts
23-Oct-20 19:59 44.144899 -80.160176 146 11036ft 266kts
23-Oct-20 20:00 44.091328 -80.093081 146 9964ft 258kts
23-Oct-20 20:02 44.034332 -80.021988 145 7589ft 235kts
23-Oct-20 20:02 43.990798 -79.977238 158 5892ft 241kts
23-Oct-20 20:03 43.936483 -79.929366 157 4996ft 206kts
23-Oct-20 20:04 43.887633 -79.887255 154 5052ft 279kts
23-Oct-20 20:05 43.826043 -79.816834 139 4094ft 270kts
23-Oct-20 20:06 43.781395 -79.758690 143 2901ft 171kts
23-Oct-20 20:07 43.750673 -79.718816 141 2083ft 155kts
23-Oct-20 20:08 43.725301 -79.685697 141 1475ft 142kts
23-Oct-20 20:09 43.696623 -79.648180 139 692ft 143kts
23-Oct-20 20:10 43.676684 -79.622170 123 552ft 47kts
23-Oct-20 20:11 43.675916 -79.619480 87 550ft 0kts
23-Oct-20 20:12 43.677572 -79.620261 316 550ft 11kts
23-Oct-20 20:13 43.681094 -79.624158 316 552ft 20kts
23-Oct-20 20:14 43.683549 -79.628861 216 554ft 11kts
23-Oct-20 20:15 43.681892 -79.632142 315 554ft 11kts
23-Oct-20 20:16 43.683021 -79.634608 230 554ft 7kts
23-Oct-20 20:17 43.681527 -79.636112 156 554ft 4kts
23-Oct-20 20:18 43.681369 -79.636015 156 554ft 0kts
23-Oct-20 20:19 43.681369 -79.636015 156 554ft 0kts

Navigation Log

Ident Type
Flight plan parsing failed, navigation log unavailable